sensor_id;sensor_type;location;lat;lon;timestamp;temperature;humidity
39875;DHT22;25547;52.530;13.194;2022-12-20T00:00:34;4.50;99.90
39875;DHT22;25547;52.530;13.194;2022-12-20T00:03:05;4.60;99.90
39875;DHT22;25547;52.530;13.194;2022-12-20T00:05:35;4.60;99.90
39875;DHT22;25547;52.530;13.194;2022-12-20T00:08:01;4.60;99.90
39875;DHT22;25547;52.530;13.194;2022-12-20T00:10:27;4.70;99.90
39875;DHT22;25547;52.530;13.194;2022-12-20T00:12:52;4.70;99.90
39875;DHT22;25547;52.530;13.194;2022-12-20T00:15:21;4.70;99.90
39875;DHT22;25547;52.530;13.194;2022-12-20T00:17:47;4.70;99.90
39875;DHT22;25547;52.530;13.194;2022-12-20T00:20:13;4.60;99.90
39875;DHT22;25547;52.530;13.194;2022-12-20T00:22:39;4.60;99.90
39875;DHT22;25547;52.530;13.194;2022-12-20T00:25:05;4.60;99.90
39875;DHT22;25547;52.530;13.194;2022-12-20T00:27:31;4.60;99.90
39875;DHT22;25547;52.530;13.194;2022-12-20T00:29:57;4.60;99.90
39875;DHT22;25547;52.530;13.194;2022-12-20T00:32:22;4.60;99.90
39875;DHT22;25547;52.530;13.194;2022-12-20T00:34:51;4.60;99.90
39875;DHT22;25547;52.530;13.194;2022-12-20T00:37:16;4.60;99.90
39875;DHT22;25547;52.530;13.194;2022-12-20T00:39:42;4.60;99.90
39875;DHT22;25547;52.530;13.194;2022-12-20T00:42:10;4.60;99.90
39875;DHT22;25547;52.530;13.194;2022-12-20T00:44:36;4.60;99.90
39875;DHT22;25547;52.530;13.194;2022-12-20T00:47:02;4.60;99.90
39875;DHT22;25547;52.530;13.194;2022-12-20T00:49:27;4.60;99.90
39875;DHT22;25547;52.530;13.194;2022-12-20T00:51:55;4.70;99.90
39875;DHT22;25547;52.530;13.194;2022-12-20T00:54:21;4.70;99.90
39875;DHT22;25547;52.530;13.194;2022-12-20T00:56:47;4.60;99.90
39875;DHT22;25547;52.530;13.194;2022-12-20T00:59:12;4.60;99.90
39875;DHT22;25547;52.530;13.194;2022-12-20T01:01:38;4.60;99.90
39875;DHT22;25547;52.530;13.194;2022-12-20T01:04:06;4.60;99.90
39875;DHT22;25547;52.530;13.194;2022-12-20T01:06:32;4.60;99.90
39875;DHT22;25547;52.530;13.194;2022-12-20T01:08:59;4.60;99.90
39875;DHT22;25547;52.530;13.194;2022-12-20T01:11:27;4.60;99.90
39875;DHT22;25547;52.530;13.194;2022-12-20T01:13:55;4.60;99.90
39875;DHT22;25547;52.530;13.194;2022-12-20T01:16:27;4.60;99.90
39875;DHT22;25547;52.530;13.194;2022-12-20T01:18:55;4.60;99.90
39875;DHT22;25547;52.530;13.194;2022-12-20T01:21:23;4.60;99.90
39875;DHT22;25547;52.530;13.194;2022-12-20T01:23:49;4.80;99.90
39875;DHT22;25547;52.530;13.194;2022-12-20T01:26:18;4.60;99.90
39875;DHT22;25547;52.530;13.194;2022-12-20T01:28:46;4.60;99.90
39875;DHT22;25547;52.530;13.194;2022-12-20T01:31:17;4.60;99.90
39875;DHT22;25547;52.530;13.194;2022-12-20T01:33:45;4.60;99.90
39875;DHT22;25547;52.530;13.194;2022-12-20T01:36:13;4.50;99.90
39875;DHT22;25547;52.530;13.194;2022-12-20T01:38:39;4.50;99.90
39875;DHT22;25547;52.530;13.194;2022-12-20T01:41:08;4.50;99.90
39875;DHT22;25547;52.530;13.194;2022-12-20T01:44:49;4.50;99.90
39875;DHT22;25547;52.530;13.194;2022-12-20T01:46:49;4.50;99.90
39875;DHT22;25547;52.530;13.194;2022-12-20T01:51:59;4.50;99.90
39875;DHT22;25547;52.530;13.194;2022-12-20T01:54:31;4.40;99.90
39875;DHT22;25547;52.530;13.194;2022-12-20T01:57:23;4.40;99.90
39875;DHT22;25547;52.530;13.194;2022-12-20T01:59:50;4.50;99.90
39875;DHT22;25547;52.530;13.194;2022-12-20T02:02:17;4.50;99.90
39875;DHT22;25547;52.530;13.194;2022-12-20T02:04:47;4.50;99.90
39875;DHT22;25547;52.530;13.194;2022-12-20T02:07:18;4.40;99.90
39875;DHT22;25547;52.530;13.194;2022-12-20T02:09:45;4.40;99.90
39875;DHT22;25547;52.530;13.194;2022-12-20T02:12:20;4.50;99.90
39875;DHT22;25547;52.530;13.194;2022-12-20T02:27:25;4.60;99.90
39875;DHT22;25547;52.530;13.194;2022-12-20T02:32:47;4.60;99.90
39875;DHT22;25547;52.530;13.194;2022-12-20T02:35:23;4.70;99.90
39875;DHT22;25547;52.530;13.194;2022-12-20T02:37:58;4.70;99.90
39875;DHT22;25547;52.530;13.194;2022-12-20T02:40:35;4.70;99.90
39875;DHT22;25547;52.530;13.194;2022-12-20T02:43:05;4.80;99.90
39875;DHT22;25547;52.530;13.194;2022-12-20T02:45:51;4.80;99.90
39875;DHT22;25547;52.530;13.194;2022-12-20T02:48:21;4.80;99.90
39875;DHT22;25547;52.530;13.194;2022-12-20T02:50:51;4.80;99.90
39875;DHT22;25547;52.530;13.194;2022-12-20T02:53:19;4.70;99.90
39875;DHT22;25547;52.530;13.194;2022-12-20T03:01:13;4.60;99.90
39875;DHT22;25547;52.530;13.194;2022-12-20T03:03:41;4.60;99.90
39875;DHT22;25547;52.530;13.194;2022-12-20T03:06:07;4.60;99.90
39875;DHT22;25547;52.530;13.194;2022-12-20T03:08:33;4.60;99.90
39875;DHT22;25547;52.530;13.194;2022-12-20T03:10:58;4.60;99.90
39875;DHT22;25547;52.530;13.194;2022-12-20T03:13:25;4.70;99.90
39875;DHT22;25547;52.530;13.194;2022-12-20T03:15:51;4.70;99.90
39875;DHT22;25547;52.530;13.194;2022-12-20T03:18:17;4.70;99.90
39875;DHT22;25547;52.530;13.194;2022-12-20T03:20:43;4.70;99.90
39875;DHT22;25547;52.530;13.194;2022-12-20T03:23:11;4.70;99.90
39875;DHT22;25547;52.530;13.194;2022-12-20T03:25:37;4.80;99.90
39875;DHT22;25547;52.530;13.194;2022-12-20T03:28:03;4.80;99.90
39875;DHT22;25547;52.530;13.194;2022-12-20T03:30:31;4.90;99.90
39875;DHT22;25547;52.530;13.194;2022-12-20T03:33:01;4.90;99.90
39875;DHT22;25547;52.530;13.194;2022-12-20T03:35:27;4.90;99.90
39875;DHT22;25547;52.530;13.194;2022-12-20T03:37:53;5.00;99.90
39875;DHT22;25547;52.530;13.194;2022-12-20T03:40:23;5.00;99.90
39875;DHT22;25547;52.530;13.194;2022-12-20T03:42:51;5.00;99.90
39875;DHT22;25547;52.530;13.194;2022-12-20T03:45:19;5.00;99.90
39875;DHT22;25547;52.530;13.194;2022-12-20T03:47:45;5.00;99.90
39875;DHT22;25547;52.530;13.194;2022-12-20T03:50:11;5.00;99.90
39875;DHT22;25547;52.530;13.194;2022-12-20T03:52:37;5.00;99.90
39875;DHT22;25547;52.530;13.194;2022-12-20T03:55:06;4.90;99.90
39875;DHT22;25547;52.530;13.194;2022-12-20T03:57:34;4.90;99.90
39875;DHT22;25547;52.530;13.194;2022-12-20T04:00:03;4.90;99.90
39875;DHT22;25547;52.530;13.194;2022-12-20T04:02:31;4.80;99.90
39875;DHT22;25547;52.530;13.194;2022-12-20T04:05:00;4.80;99.90
39875;DHT22;25547;52.530;13.194;2022-12-20T04:07:25;4.70;99.90
39875;DHT22;25547;52.530;13.194;2022-12-20T04:09:54;4.70;99.90
39875;DHT22;25547;52.530;13.194;2022-12-20T04:12:22;4.70;99.90
39875;DHT22;25547;52.530;13.194;2022-12-20T04:14:47;4.80;99.90
39875;DHT22;25547;52.530;13.194;2022-12-20T04:17:13;4.80;99.90
39875;DHT22;25547;52.530;13.194;2022-12-20T04:19:39;4.80;99.90
39875;DHT22;25547;52.530;13.194;2022-12-20T04:22:07;4.80;99.90
39875;DHT22;25547;52.530;13.194;2022-12-20T04:24:35;4.70;99.90
39875;DHT22;25547;52.530;13.194;2022-12-20T04:27:03;4.70;99.90
39875;DHT22;25547;52.530;13.194;2022-12-20T04:29:30;4.70;99.90
39875;DHT22;25547;52.530;13.194;2022-12-20T04:31:58;4.70;99.90
39875;DHT22;25547;52.530;13.194;2022-12-20T04:34:24;4.80;99.90
39875;DHT22;25547;52.530;13.194;2022-12-20T04:36:50;4.70;99.90
39875;DHT22;25547;52.530;13.194;2022-12-20T04:39:15;4.70;99.90
39875;DHT22;25547;52.530;13.194;2022-12-20T04:41:41;4.80;99.90
39875;DHT22;25547;52.530;13.194;2022-12-20T04:44:07;4.80;99.90
39875;DHT22;25547;52.530;13.194;2022-12-20T04:46:33;4.80;99.90
39875;DHT22;25547;52.530;13.194;2022-12-20T04:48:59;4.80;99.90
39875;DHT22;25547;52.530;13.194;2022-12-20T04:51:25;4.80;99.90
39875;DHT22;25547;52.530;13.194;2022-12-20T04:53:51;4.70;99.90
39875;DHT22;25547;52.530;13.194;2022-12-20T04:56:23;4.70;99.90
39875;DHT22;25547;52.530;13.194;2022-12-20T04:58:53;4.70;99.90
39875;DHT22;25547;52.530;13.194;2022-12-20T05:01:19;4.70;99.90
39875;DHT22;25547;52.530;13.194;2022-12-20T05:03:46;4.70;99.90
39875;DHT22;25547;52.530;13.194;2022-12-20T05:06:12;4.80;99.90
39875;DHT22;25547;52.530;13.194;2022-12-20T05:08:38;4.80;99.90
39875;DHT22;25547;52.530;13.194;2022-12-20T05:11:04;4.90;99.90
39875;DHT22;25547;52.530;13.194;2022-12-20T05:13:30;4.90;99.90
39875;DHT22;25547;52.530;13.194;2022-12-20T05:15:59;4.90;99.90
39875;DHT22;25547;52.530;13.194;2022-12-20T05:18:29;4.90;99.90
39875;DHT22;25547;52.530;13.194;2022-12-20T05:20:58;4.90;99.90
39875;DHT22;25547;52.530;13.194;2022-12-20T05:23:49;5.00;99.90
39875;DHT22;25547;52.530;13.194;2022-12-20T05:26:35;4.90;99.90
39875;DHT22;25547;52.530;13.194;2022-12-20T05:29:03;4.90;99.90
39875;DHT22;25547;52.530;13.194;2022-12-20T05:31:31;4.90;99.90
39875;DHT22;25547;52.530;13.194;2022-12-20T05:33:57;4.90;99.90
39875;DHT22;25547;52.530;13.194;2022-12-20T05:36:23;4.90;99.90
39875;DHT22;25547;52.530;13.194;2022-12-20T05:38:49;4.90;99.90
39875;DHT22;25547;52.530;13.194;2022-12-20T05:41:14;4.90;99.90
39875;DHT22;25547;52.530;13.194;2022-12-20T05:43:40;5.00;99.90
39875;DHT22;25547;52.530;13.194;2022-12-20T05:46:06;5.00;99.90
39875;DHT22;25547;52.530;13.194;2022-12-20T05:48:35;5.00;99.90
39875;DHT22;25547;52.530;13.194;2022-12-20T05:51:00;5.00;99.90
39875;DHT22;25547;52.530;13.194;2022-12-20T05:53:26;5.10;99.90
39875;DHT22;25547;52.530;13.194;2022-12-20T05:55:53;5.10;99.90
39875;DHT22;25547;52.530;13.194;2022-12-20T05:58:19;5.20;99.90
39875;DHT22;25547;52.530;13.194;2022-12-20T06:00:45;5.10;99.90
39875;DHT22;25547;52.530;13.194;2022-12-20T06:03:12;5.10;99.90
39875;DHT22;25547;52.530;13.194;2022-12-20T06:05:39;5.10;99.90
39875;DHT22;25547;52.530;13.194;2022-12-20T06:08:06;5.20;99.90
39875;DHT22;25547;52.530;13.194;2022-12-20T06:10:35;5.20;99.90
39875;DHT22;25547;52.530;13.194;2022-12-20T06:13:04;5.20;99.90
39875;DHT22;25547;52.530;13.194;2022-12-20T06:15:32;5.30;99.90
39875;DHT22;25547;52.530;13.194;2022-12-20T06:17:58;5.30;99.90
39875;DHT22;25547;52.530;13.194;2022-12-20T06:20:24;5.40;99.90
39875;DHT22;25547;52.530;13.194;2022-12-20T06:22:53;5.40;99.90
39875;DHT22;25547;52.530;13.194;2022-12-20T06:25:20;5.40;99.90
39875;DHT22;25547;52.530;13.194;2022-12-20T06:27:47;5.40;99.90
39875;DHT22;25547;52.530;13.194;2022-12-20T06:30:16;5.40;99.90
39875;DHT22;25547;52.530;13.194;2022-12-20T06:32:42;5.40;99.90
39875;DHT22;25547;52.530;13.194;2022-12-20T06:35:08;5.40;99.90
39875;DHT22;25547;52.530;13.194;2022-12-20T06:37:34;5.50;99.90
39875;DHT22;25547;52.530;13.194;2022-12-20T06:40:01;5.40;99.90
39875;DHT22;25547;52.530;13.194;2022-12-20T06:42:27;5.40;99.90
39875;DHT22;25547;52.530;13.194;2022-12-20T06:44:55;5.40;99.90
39875;DHT22;25547;52.530;13.194;2022-12-20T06:47:21;5.40;99.90
39875;DHT22;25547;52.530;13.194;2022-12-20T06:49:46;5.40;99.90
39875;DHT22;25547;52.530;13.194;2022-12-20T06:52:12;5.40;99.90
39875;DHT22;25547;52.530;13.194;2022-12-20T06:54:38;5.40;99.90
39875;DHT22;25547;52.530;13.194;2022-12-20T06:57:07;5.40;99.90
39875;DHT22;25547;52.530;13.194;2022-12-20T06:59:35;5.40;99.90
39875;DHT22;25547;52.530;13.194;2022-12-20T07:02:04;5.40;99.90
39875;DHT22;25547;52.530;13.194;2022-12-20T07:04:29;5.50;99.90
39875;DHT22;25547;52.530;13.194;2022-12-20T07:06:55;5.50;99.90
39875;DHT22;25547;52.530;13.194;2022-12-20T07:09:24;5.50;99.90
39875;DHT22;25547;52.530;13.194;2022-12-20T07:11:50;5.50;99.90
39875;DHT22;25547;52.530;13.194;2022-12-20T07:14:16;5.50;99.90
39875;DHT22;25547;52.530;13.194;2022-12-20T07:16:44;5.50;99.90
39875;DHT22;25547;52.530;13.194;2022-12-20T07:19:13;5.60;99.90
39875;DHT22;25547;52.530;13.194;2022-12-20T07:21:39;5.70;99.90
39875;DHT22;25547;52.530;13.194;2022-12-20T07:24:05;5.60;99.90
39875;DHT22;25547;52.530;13.194;2022-12-20T07:26:31;5.70;99.90
39875;DHT22;25547;52.530;13.194;2022-12-20T07:28:57;5.70;99.90
39875;DHT22;25547;52.530;13.194;2022-12-20T07:31:25;5.60;99.90
39875;DHT22;25547;52.530;13.194;2022-12-20T07:33:51;5.60;99.90
39875;DHT22;25547;52.530;13.194;2022-12-20T07:36:17;5.60;99.90
39875;DHT22;25547;52.530;13.194;2022-12-20T07:38:43;5.60;99.90
39875;DHT22;25547;52.530;13.194;2022-12-20T07:41:14;5.70;99.90
39875;DHT22;25547;52.530;13.194;2022-12-20T07:43:41;5.70;99.90
39875;DHT22;25547;52.530;13.194;2022-12-20T07:46:08;5.80;99.90
39875;DHT22;25547;52.530;13.194;2022-12-20T07:48:36;5.80;99.90
39875;DHT22;25547;52.530;13.194;2022-12-20T07:51:10;5.80;99.90
39875;DHT22;25547;52.530;13.194;2022-12-20T07:53:40;5.80;99.90
39875;DHT22;25547;52.530;13.194;2022-12-20T07:56:10;5.90;99.90
39875;DHT22;25547;52.530;13.194;2022-12-20T07:58:41;5.90;99.90
39875;DHT22;25547;52.530;13.194;2022-12-20T08:01:08;5.90;99.90
39875;DHT22;25547;52.530;13.194;2022-12-20T08:03:39;5.90;99.90
39875;DHT22;25547;52.530;13.194;2022-12-20T08:06:06;5.80;99.90
39875;DHT22;25547;52.530;13.194;2022-12-20T08:08:34;5.80;99.90
39875;DHT22;25547;52.530;13.194;2022-12-20T08:11:02;5.80;99.90
39875;DHT22;25547;52.530;13.194;2022-12-20T08:13:28;5.80;99.90
39875;DHT22;25547;52.530;13.194;2022-12-20T08:15:53;5.80;99.90
39875;DHT22;25547;52.530;13.194;2022-12-20T08:18:19;5.80;99.90
39875;DHT22;25547;52.530;13.194;2022-12-20T08:20:45;5.80;99.90
39875;DHT22;25547;52.530;13.194;2022-12-20T08:23:11;5.80;99.90
39875;DHT22;25547;52.530;13.194;2022-12-20T08:25:36;5.90;99.90
39875;DHT22;25547;52.530;13.194;2022-12-20T08:28:02;5.80;99.90
39875;DHT22;25547;52.530;13.194;2022-12-20T08:30:30;5.80;99.90
39875;DHT22;25547;52.530;13.194;2022-12-20T08:32:56;5.90;99.90
39875;DHT22;25547;52.530;13.194;2022-12-20T08:35:22;5.80;99.90
39875;DHT22;25547;52.530;13.194;2022-12-20T08:37:52;5.90;99.90
39875;DHT22;25547;52.530;13.194;2022-12-20T08:40:19;5.90;99.90
39875;DHT22;25547;52.530;13.194;2022-12-20T08:42:44;5.90;99.90
39875;DHT22;25547;52.530;13.194;2022-12-20T08:45:12;6.00;99.90
39875;DHT22;25547;52.530;13.194;2022-12-20T08:47:38;6.00;99.90
39875;DHT22;25547;52.530;13.194;2022-12-20T08:50:04;6.10;99.90
39875;DHT22;25547;52.530;13.194;2022-12-20T08:52:33;6.10;99.90
39875;DHT22;25547;52.530;13.194;2022-12-20T08:54:59;6.10;99.90
39875;DHT22;25547;52.530;13.194;2022-12-20T08:57:29;6.10;99.90
39875;DHT22;25547;52.530;13.194;2022-12-20T09:00:00;6.10;99.90
39875;DHT22;25547;52.530;13.194;2022-12-20T09:02:26;6.10;99.90
39875;DHT22;25547;52.530;13.194;2022-12-20T09:04:51;6.10;99.90
39875;DHT22;25547;52.530;13.194;2022-12-20T09:07:17;6.20;99.90
39875;DHT22;25547;52.530;13.194;2022-12-20T09:09:45;6.20;99.90
39875;DHT22;25547;52.530;13.194;2022-12-20T09:12:10;6.20;99.90
39875;DHT22;25547;52.530;13.194;2022-12-20T09:14:36;6.30;99.90
39875;DHT22;25547;52.530;13.194;2022-12-20T09:17:02;6.30;99.90
39875;DHT22;25547;52.530;13.194;2022-12-20T09:19:28;6.30;99.90
39875;DHT22;25547;52.530;13.194;2022-12-20T09:21:54;6.30;99.90
39875;DHT22;25547;52.530;13.194;2022-12-20T09:24:22;6.40;99.90
39875;DHT22;25547;52.530;13.194;2022-12-20T09:26:48;6.30;99.90
39875;DHT22;25547;52.530;13.194;2022-12-20T09:29:14;6.50;99.90
39875;DHT22;25547;52.530;13.194;2022-12-20T09:31:39;6.50;99.90
39875;DHT22;25547;52.530;13.194;2022-12-20T09:34:05;6.50;99.90
39875;DHT22;25547;52.530;13.194;2022-12-20T09:36:31;6.60;99.90
39875;DHT22;25547;52.530;13.194;2022-12-20T09:38:57;6.70;99.90
39875;DHT22;25547;52.530;13.194;2022-12-20T09:41:36;6.70;99.90
39875;DHT22;25547;52.530;13.194;2022-12-20T09:44:29;6.80;99.90
39875;DHT22;25547;52.530;13.194;2022-12-20T09:47:17;6.80;99.90
39875;DHT22;25547;52.530;13.194;2022-12-20T09:49:46;6.80;99.90
39875;DHT22;25547;52.530;13.194;2022-12-20T09:52:24;6.80;99.90
39875;DHT22;25547;52.530;13.194;2022-12-20T09:54:58;6.70;99.90
39875;DHT22;25547;52.530;13.194;2022-12-20T09:59:58;6.70;99.90
39875;DHT22;25547;52.530;13.194;2022-12-20T10:02:28;6.70;99.90
39875;DHT22;25547;52.530;13.194;2022-12-20T10:04:57;6.70;99.90
39875;DHT22;25547;52.530;13.194;2022-12-20T10:07:41;6.70;99.90
39875;DHT22;25547;52.530;13.194;2022-12-20T10:10:29;6.80;99.90
39875;DHT22;25547;52.530;13.194;2022-12-20T10:15:42;6.90;99.90
39875;DHT22;25547;52.530;13.194;2022-12-20T10:18:21;6.90;99.90
39875;DHT22;25547;52.530;13.194;2022-12-20T10:21:00;6.90;99.90
39875;DHT22;25547;52.530;13.194;2022-12-20T10:23:43;7.00;99.90
39875;DHT22;25547;52.530;13.194;2022-12-20T10:26:12;6.90;99.90
39875;DHT22;25547;52.530;13.194;2022-12-20T10:28:38;7.00;99.90
39875;DHT22;25547;52.530;13.194;2022-12-20T10:31:16;6.90;99.90
39875;DHT22;25547;52.530;13.194;2022-12-20T10:33:43;6.90;99.90
39875;DHT22;25547;52.530;13.194;2022-12-20T10:38:57;6.90;99.90
39875;DHT22;25547;52.530;13.194;2022-12-20T10:42:00;6.90;99.90
39875;DHT22;25547;52.530;13.194;2022-12-20T10:44:27;7.00;99.90
39875;DHT22;25547;52.530;13.194;2022-12-20T10:46:57;7.10;99.90
39875;DHT22;25547;52.530;13.194;2022-12-20T10:49:33;7.10;99.90
39875;DHT22;25547;52.530;13.194;2022-12-20T10:54:37;7.20;99.90
39875;DHT22;25547;52.530;13.194;2022-12-20T11:02:35;7.30;99.90
39875;DHT22;25547;52.530;13.194;2022-12-20T11:07:38;7.30;99.90
39875;DHT22;25547;52.530;13.194;2022-12-20T11:10:23;7.40;99.90
39875;DHT22;25547;52.530;13.194;2022-12-20T11:12:59;7.40;99.90
39875;DHT22;25547;52.530;13.194;2022-12-20T11:15:34;7.40;99.90
39875;DHT22;25547;52.530;13.194;2022-12-20T11:23:44;7.50;99.90
39875;DHT22;25547;52.530;13.194;2022-12-20T11:29:02;7.60;99.90
39875;DHT22;25547;52.530;13.194;2022-12-20T11:52:53;7.90;99.90
39875;DHT22;25547;52.530;13.194;2022-12-20T11:55:27;7.90;99.90
39875;DHT22;25547;52.530;13.194;2022-12-20T11:58:05;7.90;99.90
39875;DHT22;25547;52.530;13.194;2022-12-20T12:00:39;7.90;99.90
39875;DHT22;25547;52.530;13.194;2022-12-20T12:03:39;8.00;99.90
39875;DHT22;25547;52.530;13.194;2022-12-20T12:06:25;8.00;99.90
39875;DHT22;25547;52.530;13.194;2022-12-20T12:11:45;8.10;99.90
39875;DHT22;25547;52.530;13.194;2022-12-20T12:15:03;8.10;99.90
39875;DHT22;25547;52.530;13.194;2022-12-20T12:17:17;8.10;99.90
39875;DHT22;25547;52.530;13.194;2022-12-20T12:19:46;8.20;99.90
39875;DHT22;25547;52.530;13.194;2022-12-20T12:22:21;8.20;99.90
39875;DHT22;25547;52.530;13.194;2022-12-20T12:24:56;8.20;99.90
39875;DHT22;25547;52.530;13.194;2022-12-20T12:27:28;8.20;99.90
39875;DHT22;25547;52.530;13.194;2022-12-20T12:29:55;8.20;99.90
39875;DHT22;25547;52.530;13.194;2022-12-20T12:43:45;8.20;99.90
39875;DHT22;25547;52.530;13.194;2022-12-20T12:46:33;8.20;99.90
39875;DHT22;25547;52.530;13.194;2022-12-20T12:49:11;8.20;99.90
39875;DHT22;25547;52.530;13.194;2022-12-20T12:51:42;8.20;99.90
39875;DHT22;25547;52.530;13.194;2022-12-20T12:56:47;8.20;99.90
39875;DHT22;25547;52.530;13.194;2022-12-20T12:59:53;8.20;99.90
39875;DHT22;25547;52.530;13.194;2022-12-20T13:10:04;8.20;99.90
39875;DHT22;25547;52.530;13.194;2022-12-20T13:17:50;8.10;99.90
39875;DHT22;25547;52.530;13.194;2022-12-20T13:20:28;8.10;99.90
39875;DHT22;25547;52.530;13.194;2022-12-20T13:25:47;8.10;99.90
39875;DHT22;25547;52.530;13.194;2022-12-20T13:33:49;8.00;99.90
39875;DHT22;25547;52.530;13.194;2022-12-20T13:46:48;8.00;99.90
39875;DHT22;25547;52.530;13.194;2022-12-20T13:49:38;8.00;99.90
39875;DHT22;25547;52.530;13.194;2022-12-20T13:54:42;7.90;99.90
39875;DHT22;25547;52.530;13.194;2022-12-20T13:57:23;7.90;99.90
39875;DHT22;25547;52.530;13.194;2022-12-20T13:59:55;7.90;99.90
39875;DHT22;25547;52.530;13.194;2022-12-20T14:02:29;7.90;99.90
39875;DHT22;25547;52.530;13.194;2022-12-20T14:05:39;7.90;99.90
39875;DHT22;25547;52.530;13.194;2022-12-20T14:08:08;7.80;99.90
39875;DHT22;25547;52.530;13.194;2022-12-20T14:10:38;7.80;99.90
39875;DHT22;25547;52.530;13.194;2022-12-20T14:13:26;7.80;99.90
39875;DHT22;25547;52.530;13.194;2022-12-20T14:15:53;7.80;99.90
39875;DHT22;25547;52.530;13.194;2022-12-20T14:18:25;7.80;99.90
39875;DHT22;25547;52.530;13.194;2022-12-20T14:20:57;7.70;99.90
39875;DHT22;25547;52.530;13.194;2022-12-20T14:23:27;7.70;99.90
39875;DHT22;25547;52.530;13.194;2022-12-20T14:26:01;7.70;99.90
39875;DHT22;25547;52.530;13.194;2022-12-20T14:28:37;7.70;99.90
39875;DHT22;25547;52.530;13.194;2022-12-20T14:31:05;7.70;99.90
39875;DHT22;25547;52.530;13.194;2022-12-20T14:33:41;7.70;99.90
39875;DHT22;25547;52.530;13.194;2022-12-20T14:38:47;7.70;99.90
39875;DHT22;25547;52.530;13.194;2022-12-20T14:41:34;7.60;99.90
39875;DHT22;25547;52.530;13.194;2022-12-20T14:46:34;7.50;99.90
39875;DHT22;25547;52.530;13.194;2022-12-20T14:52:03;7.50;99.90
39875;DHT22;25547;52.530;13.194;2022-12-20T14:54:29;7.50;99.90
39875;DHT22;25547;52.530;13.194;2022-12-20T14:56:55;7.50;99.90
39875;DHT22;25547;52.530;13.194;2022-12-20T14:59:27;7.50;99.90
39875;DHT22;25547;52.530;13.194;2022-12-20T15:01:55;7.40;99.90
39875;DHT22;25547;52.530;13.194;2022-12-20T15:04:33;7.40;99.90
39875;DHT22;25547;52.530;13.194;2022-12-20T15:07:00;7.40;99.90
39875;DHT22;25547;52.530;13.194;2022-12-20T15:09:29;7.40;99.90
39875;DHT22;25547;52.530;13.194;2022-12-20T15:11:55;7.40;99.90
39875;DHT22;25547;52.530;13.194;2022-12-20T15:14:32;7.30;99.90
39875;DHT22;25547;52.530;13.194;2022-12-20T15:17:08;7.30;99.90
39875;DHT22;25547;52.530;13.194;2022-12-20T15:19:34;7.30;99.90
39875;DHT22;25547;52.530;13.194;2022-12-20T15:22:00;7.30;99.90
39875;DHT22;25547;52.530;13.194;2022-12-20T15:24:27;7.30;99.90
39875;DHT22;25547;52.530;13.194;2022-12-20T15:26:53;7.30;99.90
39875;DHT22;25547;52.530;13.194;2022-12-20T15:29:25;7.20;99.90
39875;DHT22;25547;52.530;13.194;2022-12-20T15:31:56;7.30;99.90
39875;DHT22;25547;52.530;13.194;2022-12-20T15:36:53;7.30;99.90
39875;DHT22;25547;52.530;13.194;2022-12-20T15:39:19;7.30;99.90
39875;DHT22;25547;52.530;13.194;2022-12-20T15:41:48;7.30;99.90
39875;DHT22;25547;52.530;13.194;2022-12-20T15:44:19;7.20;99.90
39875;DHT22;25547;52.530;13.194;2022-12-20T15:46:49;7.20;99.90
39875;DHT22;25547;52.530;13.194;2022-12-20T15:49:22;7.20;99.90
39875;DHT22;25547;52.530;13.194;2022-12-20T15:51:50;7.20;99.90
39875;DHT22;25547;52.530;13.194;2022-12-20T15:54:33;7.20;99.90
39875;DHT22;25547;52.530;13.194;2022-12-20T15:57:03;7.20;99.90
39875;DHT22;25547;52.530;13.194;2022-12-20T15:59:31;7.20;99.90
39875;DHT22;25547;52.530;13.194;2022-12-20T16:01:57;7.20;99.90
39875;DHT22;25547;52.530;13.194;2022-12-20T16:04:30;7.20;99.90
39875;DHT22;25547;52.530;13.194;2022-12-20T16:06:56;7.10;99.90
39875;DHT22;25547;52.530;13.194;2022-12-20T16:09:26;7.10;99.90
39875;DHT22;25547;52.530;13.194;2022-12-20T16:11:52;7.10;99.90
39875;DHT22;25547;52.530;13.194;2022-12-20T16:14:19;7.10;99.90
39875;DHT22;25547;52.530;13.194;2022-12-20T16:16:45;7.00;99.90
39875;DHT22;25547;52.530;13.194;2022-12-20T16:19:13;7.00;99.90
39875;DHT22;25547;52.530;13.194;2022-12-20T16:21:48;7.00;99.90
39875;DHT22;25547;52.530;13.194;2022-12-20T16:24:19;7.00;99.90
39875;DHT22;25547;52.530;13.194;2022-12-20T16:26:46;7.00;99.90
39875;DHT22;25547;52.530;13.194;2022-12-20T16:29:12;7.10;99.90
39875;DHT22;25547;52.530;13.194;2022-12-20T16:31:39;7.10;99.90
39875;DHT22;25547;52.530;13.194;2022-12-20T16:34:15;7.10;99.90
39875;DHT22;25547;52.530;13.194;2022-12-20T16:36:45;7.00;99.90
39875;DHT22;25547;52.530;13.194;2022-12-20T16:39:10;7.10;99.90
39875;DHT22;25547;52.530;13.194;2022-12-20T16:41:38;7.10;99.90
39875;DHT22;25547;52.530;13.194;2022-12-20T16:44:05;7.00;99.90
39875;DHT22;25547;52.530;13.194;2022-12-20T16:46:31;7.00;99.90
39875;DHT22;25547;52.530;13.194;2022-12-20T16:48:59;7.00;99.90
39875;DHT22;25547;52.530;13.194;2022-12-20T16:51:39;7.00;99.90
39875;DHT22;25547;52.530;13.194;2022-12-20T16:56:38;7.00;99.90
39875;DHT22;25547;52.530;13.194;2022-12-20T16:59:07;6.90;99.90
39875;DHT22;25547;52.530;13.194;2022-12-20T17:01:38;7.00;99.90
39875;DHT22;25547;52.530;13.194;2022-12-20T17:04:05;7.00;99.90
39875;DHT22;25547;52.530;13.194;2022-12-20T17:06:33;6.90;99.90
39875;DHT22;25547;52.530;13.194;2022-12-20T17:08:59;6.90;99.90
39875;DHT22;25547;52.530;13.194;2022-12-20T17:11:29;6.90;99.90
39875;DHT22;25547;52.530;13.194;2022-12-20T17:13:59;6.90;99.90
39875;DHT22;25547;52.530;13.194;2022-12-20T17:16:27;7.00;99.90
39875;DHT22;25547;52.530;13.194;2022-12-20T17:18:54;7.00;99.90
39875;DHT22;25547;52.530;13.194;2022-12-20T17:21:28;7.00;99.90
39875;DHT22;25547;52.530;13.194;2022-12-20T17:23:58;7.00;99.90
39875;DHT22;25547;52.530;13.194;2022-12-20T17:26:28;7.10;99.90
39875;DHT22;25547;52.530;13.194;2022-12-20T17:28:56;7.10;99.90
39875;DHT22;25547;52.530;13.194;2022-12-20T17:31:41;7.10;99.90
39875;DHT22;25547;52.530;13.194;2022-12-20T17:34:22;7.10;99.90
39875;DHT22;25547;52.530;13.194;2022-12-20T17:36:50;7.20;99.90
39875;DHT22;25547;52.530;13.194;2022-12-20T17:39:17;7.20;99.90
39875;DHT22;25547;52.530;13.194;2022-12-20T17:41:44;7.20;99.90
39875;DHT22;25547;52.530;13.194;2022-12-20T17:44:22;7.30;99.90
39875;DHT22;25547;52.530;13.194;2022-12-20T17:46:48;7.30;99.90
39875;DHT22;25547;52.530;13.194;2022-12-20T17:49:16;7.30;99.90
39875;DHT22;25547;52.530;13.194;2022-12-20T17:51:45;7.30;99.90
39875;DHT22;25547;52.530;13.194;2022-12-20T17:54:17;7.30;99.90
39875;DHT22;25547;52.530;13.194;2022-12-20T17:56:43;7.30;99.90
39875;DHT22;25547;52.530;13.194;2022-12-20T17:59:12;7.30;99.90
39875;DHT22;25547;52.530;13.194;2022-12-20T18:01:41;7.30;99.90